Terminal Aerodrome Forecast
Issued by NWS Kansas City/Pleasant Hill, MO

Home | Current Version | Previous Version | Text Only | Print | Product List | Glossary On
Versions: 1 2 3 4 5 6 7 8 9 10 11 12 13 14 15
000
FTUS43 KEAX 271700
TAFMCI
TAF
KMCI 271720Z 2718/2818 21015G20KT P6SM OVC120
     FM272200 32010KT P6SM VCSH BKN030 OVC200
     FM280500 33010KT P6SM SCT100
     FM281000 31007KT P6SM SKC=

USA.gov is the U.S. government's official web portal to all federal, state and local government web resources and services.